Time;durP1;ratioP1;P1;durP2;ratioP2;P2;SDS_P1;SDS_P2;PMS_P1;PMS_P2;Temp;Humidity;BMP_temperature;BMP_pressure;BME280_temperature;BME280_humidity;BME280_pressure;Samples;Min_cycle;Max_cycle;Signal;HPM_P1;HPM_P2
2021/04/15 00:01:47;;;;;;;2.45;1.02;;;;;;;;;;5141328;27;20154;-68
2021/04/15 00:04:13;;;;;;;4.00;0.90;;;;;;;;;;5124644;27;20061;-68
2021/04/15 00:06:40;;;;;;;2.47;0.95;;;;;;;;;;5121926;27;20481;-68
2021/04/15 00:09:09;;;;;;;3.65;1.10;;;;;;;;;;5149824;27;20394;-68
2021/04/15 00:11:35;;;;;;;2.83;0.82;;;;;;;;;;5143065;27;20042;-68
2021/04/15 00:14:02;;;;;;;1.75;1.20;;;;;;;;;;5148639;27;20058;-68
2021/04/15 00:16:29;;;;;;;4.75;1.17;;;;;;;;;;5145890;27;20045;-68
2021/04/15 00:18:56;;;;;;;2.40;1.10;;;;;;;;;;5149276;27;20042;-68
2021/04/15 00:21:23;;;;;;;3.38;0.98;;;;;;;;;;5141114;27;20035;-68
2021/04/15 00:23:49;;;;;;;3.60;0.93;;;;;;;;;;5139037;27;20098;-68
2021/04/15 00:26:16;;;;;;;1.70;1.20;;;;;;;;;;5151148;27;20380;-68
2021/04/15 00:28:42;;;;;;;2.38;1.20;;;;;;;;;;5126801;27;20039;-68
2021/04/15 00:31:08;;;;;;;3.38;1.50;;;;;;;;;;5135041;27;20384;-68
2021/04/15 00:33:35;;;;;;;7.18;1.88;;;;;;;;;;5124312;27;20042;-69
2021/04/15 00:36:01;;;;;;;4.05;1.45;;;;;;;;;;5144756;27;20058;-69
2021/04/15 00:38:28;;;;;;;3.05;1.50;;;;;;;;;;5146481;27;20489;-69
2021/04/15 00:40:56;;;;;;;5.75;1.52;;;;;;;;;;5143742;27;20126;-68
2021/04/15 00:43:24;;;;;;;2.13;1.25;;;;;;;;;;5143085;27;20412;-68
2021/04/15 00:45:50;;;;;;;3.70;1.40;;;;;;;;;;5146131;27;20125;-68
2021/04/15 00:48:16;;;;;;;4.68;2.67;;;;;;;;;;5147217;27;20038;-68
2021/04/15 00:50:49;;;;;;;4.00;1.90;;;;;;;;;;5146401;27;20126;-68
2021/04/15 00:53:20;;;;;;;4.60;2.22;;;;;;;;;;5141934;27;20068;-68
2021/04/15 00:55:47;;;;;;;6.90;2.15;;;;;;;;;;5142190;27;20031;-68
2021/04/15 00:58:13;;;;;;;5.32;1.98;;;;;;;;;;5125525;27;20117;-68
2021/04/15 01:00:40;;;;;;;2.97;2.10;;;;;;;;;;5127826;27;20038;-68
2021/04/15 01:03:06;;;;;;;3.25;1.65;;;;;;;;;;5144480;27;20046;-68
2021/04/15 01:05:37;;;;;;;5.57;2.58;;;;;;;;;;5140845;27;20045;-68
2021/04/15 01:08:04;;;;;;;4.13;1.70;;;;;;;;;;5147966;27;20046;-68
2021/04/15 01:10:32;;;;;;;4.15;1.77;;;;;;;;;;5146628;27;20053;-68
2021/04/15 01:13:11;;;;;;;6.97;1.95;;;;;;;;;;5140708;27;20043;-68
2021/04/15 01:15:46;;;;;;;3.60;1.70;;;;;;;;;;5139504;27;20457;-68
2021/04/15 01:18:16;;;;;;;6.22;2.17;;;;;;;;;;5134791;27;20043;-68
2021/04/15 01:21:01;;;;;;;6.88;1.88;;;;;;;;;;5138884;27;20119;-68
2021/04/15 01:23:32;;;;;;;3.15;1.65;;;;;;;;;;5135205;27;20060;-68
2021/04/15 01:26:17;;;;;;;5.10;1.60;;;;;;;;;;5138116;27;20038;-68
2021/04/15 01:28:58;;;;;;;3.20;1.65;;;;;;;;;;5141223;27;20047;-68
2021/04/15 01:31:34;;;;;;;6.18;2.00;;;;;;;;;;5148412;27;20047;-68
2021/04/15 01:34:07;;;;;;;4.47;1.67;;;;;;;;;;5144919;27;20086;-68
2021/04/15 01:36:42;;;;;;;2.33;1.63;;;;;;;;;;5146409;27;20058;-68
2021/04/15 01:39:17;;;;;;;3.38;1.52;;;;;;;;;;5139154;27;20058;-68
2021/04/15 01:41:50;;;;;;;6.50;1.80;;;;;;;;;;5137019;27;20109;-68
2021/04/15 01:44:36;;;;;;;5.47;2.20;;;;;;;;;;5145623;27;20022;-68
2021/04/15 01:47:04;;;;;;;4.70;2.05;;;;;;;;;;5129502;27;20038;-68
2021/04/15 01:49:32;;;;;;;4.65;2.22;;;;;;;;;;5140385;27;20039;-68
2021/04/15 01:51:59;;;;;;;7.32;2.20;;;;;;;;;;5141773;27;20039;-68
2021/04/15 01:54:43;;;;;;;4.47;2.10;;;;;;;;;;5138927;27;20038;-68
2021/04/15 01:57:13;;;;;;;4.13;2.40;;;;;;;;;;5147157;27;20103;-68
2021/04/15 01:59:44;;;;;;;4.20;2.30;;;;;;;;;;5124315;27;20142;-68
2021/04/15 02:02:16;;;;;;;3.88;2.67;;;;;;;;;;5146831;27;20045;-68
2021/04/15 02:04:45;;;;;;;4.22;2.47;;;;;;;;;;5141332;27;20038;-68
2021/04/15 02:07:14;;;;;;;4.85;2.13;;;;;;;;;;5143815;27;20465;-68
2021/04/15 02:09:42;;;;;;;4.65;2.38;;;;;;;;;;5142439;27;20104;-68
2021/04/15 02:12:20;;;;;;;8.55;2.45;;;;;;;;;;5140430;27;20521;-68
2021/04/15 02:15:07;;;;;;;3.63;2.33;;;;;;;;;;5123514;27;20034;-68
2021/04/15 02:17:35;;;;;;;5.03;2.75;;;;;;;;;;5145516;27;20465;-68
2021/04/15 02:20:02;;;;;;;6.10;2.50;;;;;;;;;;5131915;27;20081;-69
2021/04/15 02:22:40;;;;;;;2.95;2.13;;;;;;;;;;5149029;27;20066;-68
2021/04/15 02:25:18;;;;;;;6.68;2.45;;;;;;;;;;5139968;27;20035;-69
2021/04/15 02:27:50;;;;;;;5.57;2.63;;;;;;;;;;5141991;27;20110;-69
2021/04/15 02:30:21;;;;;;;4.43;2.60;;;;;;;;;;5135135;27;20035;-69
2021/04/15 02:33:14;;;;;;;4.78;2.90;;;;;;;;;;5116944;27;20261;-69
2021/04/15 02:35:45;;;;;;;7.40;2.50;;;;;;;;;;5143693;27;20043;-69
2021/04/15 02:38:12;;;;;;;4.43;2.60;;;;;;;;;;5137417;27;20043;-68
2021/04/15 02:40:40;;;;;;;5.18;2.38;;;;;;;;;;5137428;27;20037;-68
2021/04/15 02:43:17;;;;;;;5.68;2.08;;;;;;;;;;5129747;27;20114;-69
2021/04/15 02:45:44;;;;;;;5.30;2.42;;;;;;;;;;5146813;27;20488;-68
2021/04/15 02:48:13;;;;;;;6.78;2.78;;;;;;;;;;5141580;27;20594;-68
2021/04/15 02:50:40;;;;;;;4.47;3.00;;;;;;;;;;5149163;27;20124;-68
2021/04/15 02:53:13;;;;;;;4.88;2.17;;;;;;;;;;5141999;27;20087;-69
2021/04/15 02:55:41;;;;;;;3.55;2.55;;;;;;;;;;5143639;27;20113;-68
2021/04/15 02:58:17;;;;;;;4.22;2.45;;;;;;;;;;5146887;27;20113;-68
2021/04/15 03:00:45;;;;;;;4.40;2.45;;;;;;;;;;5122018;27;20389;-68
2021/04/15 03:03:14;;;;;;;6.80;2.65;;;;;;;;;;5142865;27;20133;-68
2021/04/15 03:05:49;;;;;;;5.57;2.50;;;;;;;;;;5123309;27;20404;-69
2021/04/15 03:08:19;;;;;;;4.88;2.55;;;;;;;;;;5145239;27;20118;-68
2021/04/15 03:10:51;;;;;;;5.18;2.63;;;;;;;;;;5122076;27;20388;-68
2021/04/15 03:13:20;;;;;;;4.53;2.25;;;;;;;;;;5120944;27;20126;-68
2021/04/15 03:15:48;;;;;;;7.00;2.67;;;;;;;;;;5139666;27;20366;-68
2021/04/15 03:18:29;;;;;;;6.07;2.30;;;;;;;;;;5146960;27;20121;-68
2021/04/15 03:21:00;;;;;;;4.43;3.08;;;;;;;;;;5144459;27;20472;-68
2021/04/15 03:23:34;;;;;;;6.18;2.95;;;;;;;;;;5121424;27;20034;-68
2021/04/15 03:26:05;;;;;;;6.65;3.38;;;;;;;;;;5150448;27;20039;-68
2021/04/15 03:28:40;;;;;;;7.53;2.55;;;;;;;;;;5148365;27;20030;-68
2021/04/15 03:31:18;;;;;;;6.32;3.10;;;;;;;;;;5128221;27;20031;-68
2021/04/15 03:33:54;;;;;;;6.70;2.90;;;;;;;;;;5146318;27;20035;-68
2021/04/15 03:36:23;;;;;;;5.82;3.08;;;;;;;;;;5144317;27;20085;-68
2021/04/15 03:38:56;;;;;;;6.15;3.33;;;;;;;;;;5142780;27;20091;-68
2021/04/15 03:41:26;;;;;;;6.32;2.88;;;;;;;;;;5126429;27;20441;-68
2021/04/15 03:43:57;;;;;;;9.80;3.90;;;;;;;;;;5147960;27;20457;-68
2021/04/15 03:46:31;;;;;;;15.15;4.57;;;;;;;;;;5149796;27;20049;-68
2021/04/15 03:49:03;;;;;;;8.88;3.83;;;;;;;;;;5149008;27;20026;-68
2021/04/15 03:51:50;;;;;;;6.32;3.72;;;;;;;;;;5143141;27;20047;-69
2021/04/15 03:54:17;;;;;;;8.13;3.65;;;;;;;;;;5143717;27;20706;-68
2021/04/15 03:56:46;;;;;;;5.10;3.53;;;;;;;;;;5150017;27;20038;-69
2021/04/15 03:59:14;;;;;;;4.97;3.20;;;;;;;;;;5151684;27;20405;-69
2021/04/15 04:01:43;;;;;;;9.90;3.45;;;;;;;;;;5146306;27;20121;-69
2021/04/15 04:04:15;;;;;;;8.73;3.67;;;;;;;;;;5138980;27;20040;-69
2021/04/15 04:06:43;;;;;;;7.53;3.42;;;;;;;;;;5143911;27;20175;-69
2021/04/15 04:09:22;;;;;;;8.38;3.60;;;;;;;;;;5143059;27;20124;-69
2021/04/15 04:11:50;;;;;;;8.93;3.63;;;;;;;;;;5140443;27;20047;-69
2021/04/15 04:14:38;;;;;;;8.77;4.15;;;;;;;;;;5149180;27;20058;-68
2021/04/15 04:17:15;;;;;;;6.88;3.45;;;;;;;;;;5144726;27;20133;-69
2021/04/15 04:19:54;;;;;;;11.02;3.67;;;;;;;;;;5146203;27;20111;-69
2021/04/15 04:22:39;;;;;;;9.35;3.80;;;;;;;;;;5128072;27;20049;-69
2021/04/15 04:25:20;;;;;;;11.05;3.60;;;;;;;;;;5141115;27;20084;-69
2021/04/15 04:27:51;;;;;;;13.68;3.72;;;;;;;;;;5142390;27;20082;-69
2021/04/15 04:30:22;;;;;;;8.48;3.33;;;;;;;;;;5146925;27;20740;-69
2021/04/15 04:32:52;;;;;;;7.10;3.75;;;;;;;;;;5127789;27;20082;-69
2021/04/15 04:35:21;;;;;;;7.72;4.07;;;;;;;;;;5140002;27;20043;-69
2021/04/15 04:37:49;;;;;;;7.57;3.80;;;;;;;;;;5146993;27;20504;-69
2021/04/15 04:40:19;;;;;;;6.82;4.22;;;;;;;;;;5133534;27;20083;-69
2021/04/15 04:43:09;;;;;;;7.32;4.28;;;;;;;;;;5134837;27;20038;-69
2021/04/15 04:45:36;;;;;;;7.90;4.05;;;;;;;;;;5140549;27;20051;-69
2021/04/15 04:48:13;;;;;;;10.52;4.10;;;;;;;;;;5150978;27;20062;-69
2021/04/15 04:50:39;;;;;;;7.93;4.22;;;;;;;;;;5147109;27;20035;-69
2021/04/15 04:53:22;;;;;;;9.13;4.13;;;;;;;;;;5144659;27;20050;-69
2021/04/15 04:55:51;;;;;;;10.80;3.63;;;;;;;;;;5121636;27;20058;-69
2021/04/15 04:58:19;;;;;;;8.05;4.05;;;;;;;;;;5146322;27;20038;-70
2021/04/15 05:00:52;;;;;;;7.88;4.32;;;;;;;;;;5153725;27;20038;-69
2021/04/15 05:03:23;;;;;;;11.77;4.43;;;;;;;;;;5147963;27;20084;-69
2021/04/15 05:05:49;;;;;;;8.65;4.38;;;;;;;;;;5145148;27;20035;-69
2021/04/15 05:08:19;;;;;;;11.55;4.60;;;;;;;;;;5149601;27;20034;-69
2021/04/15 05:10:45;;;;;;;8.65;5.07;;;;;;;;;;5134631;27;20043;-69
2021/04/15 05:13:15;;;;;;;7.28;4.45;;;;;;;;;;5130869;27;20061;-69
2021/04/15 05:15:42;;;;;;;9.13;4.38;;;;;;;;;;5144105;27;20127;-69
2021/04/15 05:18:11;;;;;;;9.73;4.53;;;;;;;;;;5139708;27;20046;-69
2021/04/15 05:20:38;;;;;;;10.43;4.53;;;;;;;;;;5152578;27;20046;-68
2021/04/15 05:23:22;;;;;;;10.52;4.82;;;;;;;;;;5148375;27;20147;-72
2021/04/15 05:25:55;;;;;;;10.05;4.07;;;;;;;;;;5129683;27;20477;-68
2021/04/15 05:28:21;;;;;;;10.38;4.68;;;;;;;;;;5146711;27;20035;-68
2021/04/15 05:30:49;;;;;;;9.40;4.28;;;;;;;;;;5134837;27;20046;-69
2021/04/15 05:33:17;;;;;;;9.90;4.47;;;;;;;;;;5153172;27;20042;-68
2021/04/15 05:35:45;;;;;;;11.88;4.85;;;;;;;;;;5153260;27;20346;-69
2021/04/15 05:38:12;;;;;;;8.55;4.28;;;;;;;;;;5134281;27;20401;-69
2021/04/15 05:40:39;;;;;;;13.20;4.57;;;;;;;;;;5153179;27;20069;-69
2021/04/15 05:43:26;;;;;;;8.32;3.63;;;;;;;;;;5132791;27;20088;-69
2021/04/15 05:45:59;;;;;;;14.57;4.50;;;;;;;;;;5149677;27;20062;-69
2021/04/15 05:48:27;;;;;;;11.38;4.93;;;;;;;;;;5134501;27;20441;-69
2021/04/15 05:50:55;;;;;;;7.30;3.92;;;;;;;;;;5153375;27;20042;-68
2021/04/15 05:53:29;;;;;;;6.13;3.72;;;;;;;;;;5134046;27;20046;-69
2021/04/15 05:55:57;;;;;;;8.43;4.18;;;;;;;;;;5153074;27;20471;-69
2021/04/15 05:58:29;;;;;;;9.25;4.07;;;;;;;;;;5148086;27;20114;-69
2021/04/15 06:01:13;;;;;;;10.73;4.32;;;;;;;;;;5144044;27;20126;-69
2021/04/15 06:03:45;;;;;;;5.00;3.33;;;;;;;;;;5145862;27;20042;-69
2021/04/15 06:06:13;;;;;;;6.80;3.55;;;;;;;;;;5152092;27;20043;-70
2021/04/15 06:08:43;;;;;;;9.38;3.10;;;;;;;;;;5129270;27;20097;-72
2021/04/15 06:11:36;;;;;;;8.93;3.20;;;;;;;;;;5143207;27;20039;-69
2021/04/15 06:14:22;;;;;;;7.53;3.17;;;;;;;;;;5144724;27;20473;-67
2021/04/15 06:17:00;;;;;;;12.55;2.85;;;;;;;;;;5150184;27;20047;-66
2021/04/15 06:19:28;;;;;;;8.93;3.17;;;;;;;;;;5127662;27;20064;-67
2021/04/15 06:22:06;;;;;;;7.22;2.65;;;;;;;;;;5152462;27;20042;-67
2021/04/15 06:24:33;;;;;;;8.57;3.10;;;;;;;;;;5152028;27;20035;-67
2021/04/15 06:27:00;;;;;;;8.45;3.58;;;;;;;;;;5134763;27;20042;-67
2021/04/15 06:29:42;;;;;;;9.38;3.53;;;;;;;;;;5149065;27;20114;-67
2021/04/15 06:32:09;;;;;;;8.93;3.58;;;;;;;;;;5152155;27;20034;-66
2021/04/15 06:34:35;;;;;;;4.82;2.97;;;;;;;;;;5132604;27;20058;-67
2021/04/15 06:37:03;;;;;;;8.70;3.22;;;;;;;;;;5152253;27;20064;-67
2021/04/15 06:39:30;;;;;;;8.52;3.25;;;;;;;;;;5150609;27;20050;-67
2021/04/15 06:42:02;;;;;;;9.50;3.70;;;;;;;;;;5142392;27;20392;-66
2021/04/15 06:44:37;;;;;;;8.23;3.08;;;;;;;;;;5133137;27;20160;-67
2021/04/15 06:47:03;;;;;;;8.20;3.05;;;;;;;;;;5149756;27;20050;-67
2021/04/15 06:49:42;;;;;;;9.57;3.10;;;;;;;;;;5150892;27;20126;-66
2021/04/15 06:52:21;;;;;;;6.75;2.63;;;;;;;;;;5152119;27;20440;-70
2021/04/15 06:54:54;;;;;;;7.88;2.53;;;;;;;;;;5136958;27;20160;-71
2021/04/15 06:57:20;;;;;;;6.45;2.78;;;;;;;;;;5145337;27;20474;-71
2021/04/15 07:00:04;;;;;;;9.57;2.58;;;;;;;;;;5132919;27;20047;-71
2021/04/15 07:02:36;;;;;;;6.37;2.43;;;;;;;;;;5146455;27;20050;-69
2021/04/15 07:05:14;;;;;;;7.90;2.65;;;;;;;;;;5133245;27;20118;-69
2021/04/15 07:07:43;;;;;;;8.75;2.90;;;;;;;;;;5155269;27;20094;-70
2021/04/15 07:10:19;;;;;;;9.90;2.92;;;;;;;;;;5148946;27;20046;-70
2021/04/15 07:13:04;;;;;;;4.88;2.15;;;;;;;;;;5156875;27;20042;-69
2021/04/15 07:15:50;;;;;;;8.77;3.05;;;;;;;;;;5153466;27;20458;-70
2021/04/15 07:18:25;;;;;;;6.55;2.45;;;;;;;;;;5152504;27;20038;-70
2021/04/15 07:20:52;;;;;;;11.10;2.55;;;;;;;;;;5155868;27;20095;-69
2021/04/15 07:23:36;;;;;;;8.80;2.80;;;;;;;;;;5154044;27;20047;-69
2021/04/15 07:26:08;;;;;;;7.32;2.72;;;;;;;;;;5150926;27;20043;-69
2021/04/15 07:28:53;;;;;;;7.90;3.60;;;;;;;;;;5142213;27;20397;-69
2021/04/15 07:31:25;;;;;;;8.52;2.80;;;;;;;;;;5145760;27;20038;-69
2021/04/15 07:34:18;;;;;;;6.38;2.17;;;;;;;;;;5156113;27;20088;-69
2021/04/15 07:37:03;;;;;;;7.38;2.65;;;;;;;;;;5152251;27;20050;-69
2021/04/15 07:39:38;;;;;;;8.95;2.65;;;;;;;;;;5146535;27;20058;-71
2021/04/15 07:42:16;;;;;;;9.40;2.28;;;;;;;;;;5141302;27;20142;-71
2021/04/15 07:44:47;;;;;;;7.20;2.35;;;;;;;;;;5146887;27;20030;-71
2021/04/15 07:47:13;;;;;;;9.20;2.75;;;;;;;;;;5148426;27;20050;-71
2021/04/15 07:49:39;;;;;;;12.90;2.70;;;;;;;;;;5140196;27;20050;-71
2021/04/15 07:52:24;;;;;;;6.25;2.70;;;;;;;;;;5150419;27;20164;-71
2021/04/15 07:54:50;;;;;;;7.32;2.45;;;;;;;;;;5151583;27;20043;-72
2021/04/15 07:57:16;;;;;;;7.57;2.08;;;;;;;;;;5134301;27;20503;-72
2021/04/15 07:59:45;;;;;;;6.25;2.45;;;;;;;;;;5153348;27;20091;-72
2021/04/15 08:02:21;;;;;;;9.07;2.40;;;;;;;;;;5153839;27;20377;-71
2021/04/15 08:05:05;;;;;;;7.70;2.80;;;;;;;;;;5149156;27;20043;-73
2021/04/15 08:07:41;;;;;;;9.23;2.28;;;;;;;;;;5150961;27;20064;-71
2021/04/15 08:10:16;;;;;;;6.35;2.60;;;;;;;;;;5146773;27;20437;-73
2021/04/15 08:12:51;;;;;;;8.93;2.47;;;;;;;;;;5138310;27;20114;-72
2021/04/15 08:15:20;;;;;;;6.00;2.25;;;;;;;;;;5153494;27;20054;-71
2021/04/15 08:17:46;;;;;;;4.47;1.70;;;;;;;;;;5154880;27;20035;-69
2021/04/15 08:20:28;;;;;;;6.20;2.03;;;;;;;;;;5151917;27;20047;-69
2021/04/15 08:22:57;;;;;;;6.20;1.90;;;;;;;;;;5136329;27;20503;-69
2021/04/15 08:25:30;;;;;;;7.63;2.42;;;;;;;;;;5154528;27;20046;-70
2021/04/15 08:28:02;;;;;;;7.97;2.10;;;;;;;;;;5153244;27;20049;-70
2021/04/15 08:30:48;;;;;;;8.48;2.55;;;;;;;;;;5127590;27;20062;-70
2021/04/15 08:33:33;;;;;;;7.45;2.30;;;;;;;;;;5154306;27;20042;-70
2021/04/15 08:36:17;;;;;;;6.30;2.03;;;;;;;;;;5143597;27;20042;-71
2021/04/15 08:38:56;;;;;;;6.63;2.10;;;;;;;;;;5137553;27;20138;-71
2021/04/15 08:41:41;;;;;;;10.75;2.67;;;;;;;;;;5145518;27;20517;-72
2021/04/15 08:44:22;;;;;;;5.95;2.80;;;;;;;;;;5151687;27;20046;-70
2021/04/15 08:47:07;;;;;;;7.38;2.20;;;;;;;;;;5134101;27;20047;-70
2021/04/15 08:49:39;;;;;;;10.25;2.55;;;;;;;;;;5151131;27;20117;-70
2021/04/15 08:52:05;;;;;;;7.05;2.30;;;;;;;;;;5133726;27;20045;-70
2021/04/15 08:54:40;;;;;;;12.02;2.47;;;;;;;;;;5152312;27;20239;-70
2021/04/15 08:57:09;;;;;;;8.48;2.22;;;;;;;;;;5151734;27;20038;-70
2021/04/15 08:59:48;;;;;;;4.07;1.90;;;;;;;;;;5134802;27;20039;-70
2021/04/15 09:02:25;;;;;;;7.82;2.45;;;;;;;;;;5153724;27;20041;-70
2021/04/15 09:05:00;;;;;;;6.45;2.38;;;;;;;;;;5146665;27;20410;-70
2021/04/15 09:07:45;;;;;;;5.70;2.45;;;;;;;;;;5143795;27;20127;-72
2021/04/15 09:10:21;;;;;;;7.25;1.90;;;;;;;;;;5136907;27;20062;-71
2021/04/15 09:13:06;;;;;;;6.53;1.83;;;;;;;;;;5126292;27;20057;-71
2021/04/15 09:15:38;;;;;;;6.65;1.83;;;;;;;;;;5135275;27;20065;-72
2021/04/15 09:18:05;;;;;;;5.93;1.45;;;;;;;;;;5131789;27;20168;-70
2021/04/15 09:20:34;;;;;;;4.68;1.58;;;;;;;;;;5125630;27;20065;-70
2021/04/15 09:23:01;;;;;;;7.55;1.92;;;;;;;;;;5137659;27;20504;-70
2021/04/15 09:25:27;;;;;;;5.38;1.80;;;;;;;;;;5122173;27;20054;-70
2021/04/15 09:28:09;;;;;;;4.60;1.50;;;;;;;;;;5141287;27;20046;-70
2021/04/15 09:30:40;;;;;;;3.50;1.58;;;;;;;;;;5126435;27;20039;-72
2021/04/15 09:33:24;;;;;;;4.57;1.58;;;;;;;;;;5150959;27;20106;-70
2021/04/15 09:36:07;;;;;;;4.05;1.63;;;;;;;;;;5145569;27;20377;-70
2021/04/15 09:38:56;;;;;;;5.28;1.55;;;;;;;;;;5141870;27;20545;-73
2021/04/15 09:41:34;;;;;;;3.38;1.60;;;;;;;;;;5130413;27;20125;-73
2021/04/15 09:44:15;;;;;;;5.15;1.50;;;;;;;;;;5153401;27;20134;-73
2021/04/15 09:47:01;;;;;;;3.60;1.33;;;;;;;;;;5152539;27;20059;-76
2021/04/15 09:49:46;;;;;;;4.70;1.38;;;;;;;;;;5108185;27;20533;-72
2021/04/15 09:52:24;;;;;;;2.30;1.10;;;;;;;;;;5150475;27;20129;-72
2021/04/15 09:55:05;;;;;;;3.40;1.10;;;;;;;;;;5152769;27;20046;-72
2021/04/15 09:57:31;;;;;;;5.78;1.30;;;;;;;;;;5151845;27;20122;-72
2021/04/15 10:00:10;;;;;;;4.75;1.33;;;;;;;;;;5143941;27;20031;-73
2021/04/15 10:02:55;;;;;;;5.88;1.42;;;;;;;;;;5149257;27;20058;-68
2021/04/15 10:05:40;;;;;;;5.80;1.73;;;;;;;;;;5139408;27;20039;-72
2021/04/15 10:08:29;;;;;;;4.78;1.48;;;;;;;;;;5140189;27;20043;-71
2021/04/15 10:11:10;;;;;;;3.83;1.42;;;;;;;;;;5149477;27;20520;-71
2021/04/15 10:13:36;;;;;;;3.20;1.20;;;;;;;;;;5136338;27;20550;-73
2021/04/15 10:16:17;;;;;;;2.80;1.13;;;;;;;;;;5138220;27;20079;-71
2021/04/15 10:18:46;;;;;;;3.50;1.10;;;;;;;;;;5140229;27;20118;-74
2021/04/15 10:21:25;;;;;;;3.28;1.27;;;;;;;;;;5141162;27;20039;-75
2021/04/15 10:23:58;;;;;;;1.98;0.90;;;;;;;;;;5145338;27;20367;-74
2021/04/15 10:26:27;;;;;;;1.90;0.98;;;;;;;;;;5137478;27;20035;-74
2021/04/15 10:29:13;;;;;;;5.03;1.00;;;;;;;;;;5142589;27;20306;-73
2021/04/15 10:31:58;;;;;;;3.78;1.10;;;;;;;;;;5138972;27;20095;-80
2021/04/15 10:34:24;;;;;;;2.97;1.13;;;;;;;;;;5126866;27;20486;-70
2021/04/15 10:36:59;;;;;;;5.32;1.17;;;;;;;;;;5142796;27;20038;-72
2021/04/15 10:39:41;;;;;;;5.43;1.25;;;;;;;;;;5145716;27;20039;-72
2021/04/15 10:42:20;;;;;;;1.98;0.85;;;;;;;;;;5127923;27;20077;-72
2021/04/15 10:44:55;;;;;;;4.10;0.93;;;;;;;;;;5123245;27;20076;-72
2021/04/15 10:47:27;;;;;;;3.13;1.00;;;;;;;;;;5149388;27;20080;-72
2021/04/15 10:49:56;;;;;;;4.97;1.05;;;;;;;;;;5134580;27;20095;-72
2021/04/15 10:52:25;;;;;;;4.15;0.82;;;;;;;;;;5133829;27;20072;-72
2021/04/15 10:54:52;;;;;;;2.72;1.05;;;;;;;;;;5151170;27;20472;-71
2021/04/15 10:57:22;;;;;;;4.03;1.02;;;;;;;;;;5152652;27;20384;-71
2021/04/15 10:59:50;;;;;;;4.35;1.42;;;;;;;;;;5151240;27;20134;-72
2021/04/15 11:02:20;;;;;;;2.83;0.60;;;;;;;;;;5127558;27;20059;-71
2021/04/15 11:04:47;;;;;;;1.33;0.50;;;;;;;;;;5125344;28;20119;-73
2021/04/15 11:07:31;;;;;;;3.47;1.30;;;;;;;;;;5150612;27;20035;-72
2021/04/15 11:09:57;;;;;;;3.38;1.25;;;;;;;;;;5145996;27;20087;-72
2021/04/15 11:12:25;;;;;;;4.70;0.93;;;;;;;;;;5118895;27;20051;-75
2021/04/15 11:14:55;;;;;;;2.97;1.52;;;;;;;;;;5142833;27;20035;-73
2021/04/15 11:17:33;;;;;;;3.38;1.45;;;;;;;;;;5128528;27;20107;-75
2021/04/15 11:20:21;;;;;;;4.40;1.17;;;;;;;;;;5122039;27;20046;-74
2021/04/15 11:22:56;;;;;;;4.22;1.23;;;;;;;;;;5124192;27;20062;-74
2021/04/15 11:25:35;;;;;;;2.55;1.17;;;;;;;;;;5141267;27;20035;-73
2021/04/15 11:28:03;;;;;;;2.75;1.40;;;;;;;;;;5145731;27;20046;-74
2021/04/15 11:30:31;;;;;;;5.40;1.42;;;;;;;;;;5152658;27;20477;-73
2021/04/15 11:32:58;;;;;;;4.32;1.10;;;;;;;;;;5146570;27;20039;-73
2021/04/15 11:35:24;;;;;;;4.70;1.65;;;;;;;;;;5148886;27;20327;-74
2021/04/15 11:37:52;;;;;;;2.55;1.23;;;;;;;;;;5140243;27;20474;-74
2021/04/15 11:40:18;;;;;;;5.93;1.50;;;;;;;;;;5146402;27;20165;-74
2021/04/15 11:42:44;;;;;;;3.10;1.10;;;;;;;;;;5140003;27;20035;-73
2021/04/15 11:45:13;;;;;;;4.20;1.38;;;;;;;;;;5143512;27;20086;-74
2021/04/15 11:47:39;;;;;;;4.47;0.98;;;;;;;;;;5155888;27;20039;-74
2021/04/15 11:50:17;;;;;;;1.98;0.82;;;;;;;;;;5134413;27;20062;-74
2021/04/15 11:52:46;;;;;;;3.55;1.55;;;;;;;;;;5142385;27;20047;-74
2021/04/15 11:55:16;;;;;;;3.63;1.15;;;;;;;;;;5133369;27;20722;-74
2021/04/15 11:57:52;;;;;;;4.72;1.23;;;;;;;;;;5151181;27;20047;-73
2021/04/15 12:00:21;;;;;;;5.63;1.38;;;;;;;;;;5156637;27;20043;-73
2021/04/15 12:03:04;;;;;;;2.80;1.17;;;;;;;;;;5153463;27;20087;-73
2021/04/15 12:05:32;;;;;;;1.73;0.90;;;;;;;;;;5126970;27;20358;-73
2021/04/15 12:08:01;;;;;;;4.60;1.17;;;;;;;;;;5125555;27;20481;-72
2021/04/15 12:10:29;;;;;;;3.70;1.60;;;;;;;;;;5131622;27;20382;-71
2021/04/15 12:13:01;;;;;;;3.85;1.88;;;;;;;;;;5145044;27;20043;-68
2021/04/15 12:15:31;;;;;;;5.53;1.80;;;;;;;;;;5127692;27;20043;-69
2021/04/15 12:18:00;;;;;;;2.58;1.35;;;;;;;;;;5144732;27;20039;-67
2021/04/15 12:20:41;;;;;;;7.80;1.60;;;;;;;;;;5146401;27;20047;-68
2021/04/15 12:23:17;;;;;;;6.03;1.85;;;;;;;;;;5124993;27;20121;-67
2021/04/15 12:25:49;;;;;;;3.72;1.60;;;;;;;;;;5144415;27;20488;-69
2021/04/15 12:28:20;;;;;;;5.35;1.83;;;;;;;;;;5148812;27;20034;-71
2021/04/15 12:30:46;;;;;;;4.25;1.67;;;;;;;;;;5124653;27;20047;-69
2021/04/15 12:33:23;;;;;;;9.70;2.00;;;;;;;;;;5147274;27;20039;-72
2021/04/15 12:35:51;;;;;;;6.70;1.75;;;;;;;;;;5123517;27;20042;-73
2021/04/15 12:38:34;;;;;;;6.30;1.80;;;;;;;;;;5139138;27;20035;-69
2021/04/15 12:41:02;;;;;;;6.30;1.58;;;;;;;;;;5121923;27;20602;-68
2021/04/15 12:43:34;;;;;;;5.82;2.00;;;;;;;;;;5140979;27;20849;-68
2021/04/15 12:46:02;;;;;;;5.90;1.80;;;;;;;;;;5142287;27;20080;-68
2021/04/15 12:48:34;;;;;;;7.45;2.15;;;;;;;;;;5140449;27;20393;-68
2021/04/15 12:51:01;;;;;;;4.03;1.50;;;;;;;;;;5142306;27;20074;-69
2021/04/15 12:53:27;;;;;;;6.93;2.28;;;;;;;;;;5119966;27;20039;-69
2021/04/15 12:55:54;;;;;;;8.13;2.03;;;;;;;;;;5126744;27;20046;-69
2021/04/15 12:58:20;;;;;;;5.22;1.70;;;;;;;;;;5150719;27;20465;-69
2021/04/15 13:00:48;;;;;;;3.90;2.20;;;;;;;;;;5152243;27;20042;-68
2021/04/15 13:03:25;;;;;;;4.97;2.25;;;;;;;;;;5148237;27;20050;-68
2021/04/15 13:05:55;;;;;;;3.92;1.50;;;;;;;;;;5151171;27;20058;-69
2021/04/15 13:08:24;;;;;;;5.88;2.13;;;;;;;;;;5151046;27;20066;-69
2021/04/15 13:10:51;;;;;;;3.28;1.58;;;;;;;;;;5150870;27;20074;-68
2021/04/15 13:13:36;;;;;;;4.72;2.13;;;;;;;;;;5150421;27;20041;-69
2021/04/15 13:16:03;;;;;;;;;;;;;;;;;;5149623;27;20049;-69
2021/04/15 13:18:43;;;;;;;4.70;1.67;;;;;;;;;;5153644;27;19915;-69
2021/04/15 13:21:14;;;;;;;3.25;1.92;;;;;;;;;;5145483;27;20050;-70
2021/04/15 13:23:42;;;;;;;3.22;1.95;;;;;;;;;;5145407;27;20045;-75
2021/04/15 13:26:12;;;;;;;6.40;2.17;;;;;;;;;;5149672;27;20509;-72
2021/04/15 13:28:47;;;;;;;5.78;1.85;;;;;;;;;;5145776;27;20396;-69
2021/04/15 13:31:32;;;;;;;5.55;2.60;;;;;;;;;;5129513;27;20069;-70
2021/04/15 13:34:00;;;;;;;4.20;1.90;;;;;;;;;;5147874;27;20042;-72
2021/04/15 13:36:27;;;;;;;4.13;2.10;;;;;;;;;;5133944;27;20091;-70
2021/04/15 13:38:53;;;;;;;3.22;2.05;;;;;;;;;;5141108;27;20043;-70
2021/04/15 13:41:27;;;;;;;3.05;1.92;;;;;;;;;;5147587;27;20405;-70
2021/04/15 13:44:03;;;;;;;6.18;2.28;;;;;;;;;;5147470;27;20031;-69
2021/04/15 13:46:32;;;;;;;4.55;1.85;;;;;;;;;;5140643;27;20125;-71
2021/04/15 13:49:01;;;;;;;3.90;1.70;;;;;;;;;;5148580;27;20043;-70
2021/04/15 13:51:29;;;;;;;3.35;1.65;;;;;;;;;;5110131;27;20065;-69
2021/04/15 13:54:21;;;;;;;3.45;1.77;;;;;;;;;;5150272;27;20038;-71
2021/04/15 13:56:53;;;;;;;4.63;1.73;;;;;;;;;;5124895;27;20615;-69
2021/04/15 13:59:35;;;;;;;4.20;1.67;;;;;;;;;;5150584;27;20474;-69
2021/04/15 14:02:08;;;;;;;5.28;1.60;;;;;;;;;;5152120;27;20039;-69
2021/04/15 14:04:41;;;;;;;4.53;1.60;;;;;;;;;;5153925;27;20069;-69
2021/04/15 14:07:26;;;;;;;2.60;1.53;;;;;;;;;;5152877;27;20378;-69
2021/04/15 14:09:55;;;;;;;2.95;1.60;;;;;;;;;;5153954;27;20288;-70
2021/04/15 14:12:31;;;;;;;2.55;1.40;;;;;;;;;;5135412;27;20049;-69
2021/04/15 14:14:57;;;;;;;4.90;1.65;;;;;;;;;;5153149;27;20118;-69
2021/04/15 14:17:25;;;;;;;2.78;1.77;;;;;;;;;;5153933;27;20068;-69
2021/04/15 14:19:53;;;;;;;3.67;1.75;;;;;;;;;;5135374;27;20107;-69
2021/04/15 14:22:22;;;;;;;6.00;1.85;;;;;;;;;;5153876;27;20042;-69
2021/04/15 14:24:54;;;;;;;5.15;1.70;;;;;;;;;;5153580;27;20039;-69
2021/04/15 14:27:22;;;;;;;5.03;2.45;;;;;;;;;;5135333;27;20050;-69
2021/04/15 14:29:48;;;;;;;4.10;1.42;;;;;;;;;;5153621;27;20039;-69
2021/04/15 14:32:17;;;;;;;8.15;1.63;;;;;;;;;;5153206;27;20050;-69
2021/04/15 14:34:47;;;;;;;2.75;1.40;;;;;;;;;;5153267;27;20066;-69
2021/04/15 14:37:19;;;;;;;6.10;2.22;;;;;;;;;;5134779;27;20042;-69
2021/04/15 14:39:47;;;;;;;4.63;1.50;;;;;;;;;;5153775;27;20046;-69
2021/04/15 14:42:18;;;;;;;4.45;1.50;;;;;;;;;;5152856;27;20042;-69
2021/04/15 14:44:44;;;;;;;4.65;1.20;;;;;;;;;;5153583;27;20031;-70
2021/04/15 14:47:17;;;;;;;2.25;1.40;;;;;;;;;;5152998;27;20122;-70
2021/04/15 14:49:58;;;;;;;2.88;1.65;;;;;;;;;;5153232;27;20466;-69
2021/04/15 14:52:29;;;;;;;5.40;1.90;;;;;;;;;;5153851;27;20038;-70
2021/04/15 14:54:55;;;;;;;3.88;1.52;;;;;;;;;;5153397;27;20042;-70
2021/04/15 14:57:33;;;;;;;3.80;1.50;;;;;;;;;;5153036;27;20104;-70
2021/04/15 15:00:13;;;;;;;2.85;1.23;;;;;;;;;;5153389;27;20039;-70
2021/04/15 15:02:39;;;;;;;2.58;1.23;;;;;;;;;;5153516;27;20484;-70
2021/04/15 15:05:07;;;;;;;2.88;1.40;;;;;;;;;;5152854;27;20067;-70
2021/04/15 15:07:37;;;;;;;3.00;1.20;;;;;;;;;;5153517;27;20050;-70
2021/04/15 15:10:08;;;;;;;3.90;1.27;;;;;;;;;;5133642;27;20047;-70
2021/04/15 15:12:34;;;;;;;3.80;1.48;;;;;;;;;;5153377;27;20070;-70
2021/04/15 15:15:01;;;;;;;3.75;1.55;;;;;;;;;;5153445;27;20464;-70
2021/04/15 15:17:28;;;;;;;2.60;1.30;;;;;;;;;;5153459;27;20062;-70